Time;durP1;ratioP1;P1;durP2;ratioP2;P2;SDS_P1;SDS_P2;PMS_P1;PMS_P2;Temp;Humidity;BMP_temperature;BMP_pressure;BME280_temperature;BME280_humidity;BME280_pressure;Samples;Min_cycle;Max_cycle;Signal;HPM_P1;HPM_P2
2022/06/24 00:01:28;;;;;;;6.07;2.55;;;;;;;;;;4923947;29;20059;-67
2022/06/24 00:03:54;;;;;;;8.60;3.00;;;;;;;;;;4929893;29;20074;-65
2022/06/24 00:06:21;;;;;;;10.13;3.00;;;;;;;;;;4924210;29;20058;-65
2022/06/24 00:08:49;;;;;;;6.85;2.00;;;;;;;;;;4928444;29;20059;-66
2022/06/24 00:11:15;;;;;;;6.40;2.00;;;;;;;;;;4925130;29;20063;-64
2022/06/24 00:13:44;;;;;;;5.35;2.20;;;;;;;;;;4928535;29;20051;-67
2022/06/24 00:16:10;;;;;;;10.90;2.92;;;;;;;;;;4923775;29;20047;-66
2022/06/24 00:18:37;;;;;;;3.15;1.80;;;;;;;;;;4930157;28;20055;-65
2022/06/24 00:21:11;;;;;;;5.63;2.30;;;;;;;;;;4923210;29;20055;-62
2022/06/24 00:23:39;;;;;;;6.07;2.47;;;;;;;;;;4930603;29;20047;-67
2022/06/24 00:26:06;;;;;;;6.53;2.40;;;;;;;;;;4924631;29;20071;-66
2022/06/24 00:28:42;;;;;;;8.40;2.50;;;;;;;;;;4933766;29;20056;-68
2022/06/24 00:31:10;;;;;;;7.43;2.47;;;;;;;;;;4939937;29;20054;-72
2022/06/24 00:33:37;;;;;;;8.00;2.17;;;;;;;;;;4929169;29;20135;-65
2022/06/24 00:36:06;;;;;;;6.25;2.10;;;;;;;;;;4921797;29;20050;-67
2022/06/24 00:38:34;;;;;;;7.25;2.53;;;;;;;;;;4928831;29;20061;-67
2022/06/24 00:41:01;;;;;;;7.78;2.70;;;;;;;;;;4920709;29;20139;-65
2022/06/24 00:43:30;;;;;;;7.30;2.90;;;;;;;;;;4927504;29;20066;-64
2022/06/24 00:45:59;;;;;;;7.97;2.78;;;;;;;;;;4928881;29;20111;-67
2022/06/24 00:48:28;;;;;;;8.30;2.95;;;;;;;;;;4921743;29;20078;-66
2022/06/24 00:50:55;;;;;;;4.63;2.03;;;;;;;;;;4931750;29;20055;-69
2022/06/24 00:53:22;;;;;;;6.40;2.30;;;;;;;;;;4923967;29;20131;-68
2022/06/24 00:55:48;;;;;;;6.65;2.17;;;;;;;;;;4929896;29;20083;-70
2022/06/24 00:58:16;;;;;;;4.95;1.98;;;;;;;;;;4922984;29;20122;-70
2022/06/24 01:00:43;;;;;;;4.80;2.13;;;;;;;;;;4926521;29;20062;-70
2022/06/24 01:03:11;;;;;;;10.02;3.50;;;;;;;;;;4922955;29;20059;-64
2022/06/24 01:05:39;;;;;;;5.22;2.78;;;;;;;;;;4927974;29;20059;-65
2022/06/24 01:08:10;;;;;;;6.47;3.00;;;;;;;;;;4921893;29;20066;-61
2022/06/24 01:10:38;;;;;;;11.48;4.95;;;;;;;;;;4929267;29;20051;-61
2022/06/24 01:13:07;;;;;;;16.50;4.38;;;;;;;;;;4922314;29;20055;-63
2022/06/24 01:15:33;;;;;;;13.15;5.55;;;;;;;;;;4929119;29;20134;-60
2022/06/24 01:18:00;;;;;;;9.45;3.00;;;;;;;;;;4923231;29;20086;-61
2022/06/24 01:20:27;;;;;;;9.50;4.28;;;;;;;;;;4929033;29;20055;-59
2022/06/24 01:22:55;;;;;;;9.43;4.32;;;;;;;;;;4923384;29;20070;-61
2022/06/24 01:25:22;;;;;;;8.48;3.20;;;;;;;;;;4927849;29;20063;-61
2022/06/24 01:27:49;;;;;;;8.13;3.03;;;;;;;;;;4922712;29;20055;-64
2022/06/24 01:30:15;;;;;;;16.33;3.25;;;;;;;;;;4927542;28;20087;-65
2022/06/24 01:32:42;;;;;;;6.38;3.30;;;;;;;;;;4932670;29;20117;-64
2022/06/24 01:35:09;;;;;;;10.30;3.25;;;;;;;;;;4926282;29;20063;-65
2022/06/24 01:37:35;;;;;;;9.18;3.10;;;;;;;;;;4931675;29;20058;-61
2022/06/24 01:40:05;;;;;;;13.30;5.13;;;;;;;;;;4924445;29;20051;-64
2022/06/24 01:42:32;;;;;;;14.93;5.35;;;;;;;;;;4933054;29;20052;-65
2022/06/24 01:44:58;;;;;;;11.40;4.78;;;;;;;;;;4924794;29;20086;-63
2022/06/24 01:47:25;;;;;;;7.32;2.50;;;;;;;;;;4933924;29;20060;-63
2022/06/24 01:49:51;;;;;;;9.15;2.63;;;;;;;;;;4927428;29;20059;-60
2022/06/24 01:52:18;;;;;;;5.03;2.25;;;;;;;;;;4932908;29;20059;-62
2022/06/24 01:54:44;;;;;;;6.60;1.83;;;;;;;;;;4925520;29;20070;-62
2022/06/24 01:57:12;;;;;;;6.35;2.50;;;;;;;;;;4923615;29;20101;-60
2022/06/24 01:59:40;;;;;;;5.90;2.17;;;;;;;;;;4921432;29;20059;-62
2022/06/24 02:02:07;;;;;;;;;;;;;;;;;;4930045;29;20052;-66
2022/06/24 02:04:33;;;;;;;3.38;1.80;;;;;;;;;;4929138;29;19927;-64
2022/06/24 02:07:00;;;;;;;4.68;2.25;;;;;;;;;;4935355;29;20153;-67
2022/06/24 02:09:27;;;;;;;5.53;2.00;;;;;;;;;;4929581;29;20106;-67
2022/06/24 02:14:54;;;;;;;5.38;1.90;;;;;;;;;;4853059;29;20140;-67
2022/06/24 02:17:20;;;;;;;3.35;1.95;;;;;;;;;;4858001;29;20048;-66
2022/06/24 02:19:47;;;;;;;5.50;1.80;;;;;;;;;;4886655;28;20094;-68
2022/06/24 02:22:14;;;;;;;4.43;1.67;;;;;;;;;;4916073;29;20048;-61
2022/06/24 02:24:40;;;;;;;3.97;1.92;;;;;;;;;;4931346;29;20118;-65
2022/06/24 02:27:06;;;;;;;4.88;1.48;;;;;;;;;;4910761;29;20051;-66
2022/06/24 02:29:33;;;;;;;3.42;1.30;;;;;;;;;;4915807;29;20103;-67
2022/06/24 02:32:01;;;;;;;2.97;1.30;;;;;;;;;;4921123;29;20059;-70
2022/06/24 02:34:27;;;;;;;3.72;1.10;;;;;;;;;;4931443;29;20086;-68
2022/06/24 02:36:54;;;;;;;3.45;1.65;;;;;;;;;;4926186;29;20055;-64
2022/06/24 02:39:21;;;;;;;3.33;1.40;;;;;;;;;;4933419;29;20060;-71
2022/06/24 02:41:47;;;;;;;3.08;1.35;;;;;;;;;;4919506;28;20114;-69
2022/06/24 02:44:14;;;;;;;3.05;1.58;;;;;;;;;;4951252;29;20082;-61
2022/06/24 02:46:40;;;;;;;2.17;1.35;;;;;;;;;;4939923;29;20044;-71
2022/06/24 02:49:08;;;;;;;2.20;1.25;;;;;;;;;;4916386;29;20058;-62
2022/06/24 02:51:35;;;;;;;2.75;1.10;;;;;;;;;;4922388;29;20055;-64
2022/06/24 02:54:01;;;;;;;3.22;1.42;;;;;;;;;;4927882;29;20055;-61
2022/06/24 02:56:28;;;;;;;1.42;1.05;;;;;;;;;;4923025;28;20055;-65
2022/06/24 02:58:54;;;;;;;2.13;1.10;;;;;;;;;;4931679;29;20062;-63
2022/06/24 03:01:21;;;;;;;5.95;1.40;;;;;;;;;;4928029;28;20047;-64
2022/06/24 03:03:47;;;;;;;4.15;1.30;;;;;;;;;;4929029;29;20115;-61
2022/06/24 03:06:15;;;;;;;4.65;1.52;;;;;;;;;;4931406;29;20051;-60
2022/06/24 03:08:43;;;;;;;2.60;1.27;;;;;;;;;;4925329;29;20063;-62
2022/06/24 03:11:09;;;;;;;2.92;1.13;;;;;;;;;;4930909;29;20074;-60
2022/06/24 03:13:36;;;;;;;3.03;1.10;;;;;;;;;;4923117;29;20059;-59
2022/06/24 03:16:02;;;;;;;1.80;1.13;;;;;;;;;;4929801;29;20051;-65
2022/06/24 03:18:30;;;;;;;5.93;1.00;;;;;;;;;;4924829;29;20051;-64
2022/06/24 03:20:56;;;;;;;2.50;1.20;;;;;;;;;;4929429;29;20055;-65
2022/06/24 03:23:24;;;;;;;3.40;1.20;;;;;;;;;;4923104;29;20047;-62
2022/06/24 03:25:51;;;;;;;3.83;1.10;;;;;;;;;;4929716;29;20102;-63
2022/06/24 03:28:18;;;;;;;2.60;1.17;;;;;;;;;;4924370;29;20083;-65
2022/06/24 03:30:45;;;;;;;1.95;1.20;;;;;;;;;;4930576;29;20087;-62
2022/06/24 03:33:11;;;;;;;2.15;1.00;;;;;;;;;;4924521;29;20291;-65
2022/06/24 03:35:38;;;;;;;2.75;1.00;;;;;;;;;;4929861;29;20047;-63
2022/06/24 03:38:04;;;;;;;2.33;1.10;;;;;;;;;;4922933;28;20056;-63
2022/06/24 03:40:33;;;;;;;3.05;1.40;;;;;;;;;;4929752;29;20059;-64
2022/06/24 03:43:00;;;;;;;2.80;1.08;;;;;;;;;;4924953;28;20055;-64
2022/06/24 03:45:27;;;;;;;3.92;1.42;;;;;;;;;;4927327;29;20062;-63
2022/06/24 03:47:53;;;;;;;3.78;1.30;;;;;;;;;;4930836;29;20079;-64
2022/06/24 03:50:20;;;;;;;3.15;1.17;;;;;;;;;;4923680;29;20055;-66
2022/06/24 03:52:46;;;;;;;4.97;1.48;;;;;;;;;;4931014;29;20055;-68
2022/06/24 03:55:13;;;;;;;3.65;1.15;;;;;;;;;;4923884;29;20055;-69
2022/06/24 03:57:41;;;;;;;3.13;1.20;;;;;;;;;;4929399;29;20062;-63
2022/06/24 04:00:08;;;;;;;;;;;;;;;;;;4922439;29;20122;-65
2022/06/24 04:02:34;;;;;;;1.08;0.82;;;;;;;;;;4932241;29;19930;-63
2022/06/24 04:05:01;;;;;;;2.45;1.00;;;;;;;;;;4917549;29;20076;-65
2022/06/24 04:07:27;;;;;;;2.72;1.08;;;;;;;;;;4913471;29;20118;-68
2022/06/24 04:09:54;;;;;;;4.15;1.30;;;;;;;;;;4908940;29;20055;-65
2022/06/24 04:12:20;;;;;;;3.08;1.20;;;;;;;;;;4913614;29;20144;-66
2022/06/24 04:17:33;;;;;;;1.92;0.93;;;;;;;;;;4932428;29;20078;-65
2022/06/24 04:19:59;;;;;;;1.90;1.00;;;;;;;;;;4926634;29;20346;-68
2022/06/24 04:22:26;;;;;;;1.42;0.80;;;;;;;;;;4930903;29;20055;-64
2022/06/24 04:24:52;;;;;;;2.50;1.00;;;;;;;;;;4926625;28;20166;-67
2022/06/24 04:27:19;;;;;;;4.00;0.90;;;;;;;;;;4932838;29;20106;-70
2022/06/24 04:29:49;;;;;;;2.42;1.00;;;;;;;;;;4930934;29;20118;-64
2022/06/24 04:32:15;;;;;;;2.25;0.95;;;;;;;;;;4931395;29;20055;-65
2022/06/24 04:34:42;;;;;;;1.45;1.08;;;;;;;;;;4931819;29;20066;-64
2022/06/24 04:37:09;;;;;;;3.95;1.40;;;;;;;;;;4910185;29;20062;-61
2022/06/24 04:39:35;;;;;;;4.32;1.48;;;;;;;;;;4913401;29;20062;-61
2022/06/24 04:42:02;;;;;;;1.85;0.80;;;;;;;;;;4922910;29;20054;-62
2022/06/24 04:44:28;;;;;;;3.38;1.33;;;;;;;;;;4931859;29;20079;-65
2022/06/24 04:46:57;;;;;;;3.50;1.13;;;;;;;;;;4926101;29;20059;-63
2022/06/24 04:49:25;;;;;;;3.17;1.30;;;;;;;;;;4932387;29;20110;-64
2022/06/24 04:51:51;;;;;;;2.80;1.27;;;;;;;;;;4926516;29;20059;-61
2022/06/24 04:54:18;;;;;;;2.65;1.10;;;;;;;;;;4932307;29;20299;-63
2022/06/24 04:56:44;;;;;;;2.13;1.08;;;;;;;;;;4923611;29;20062;-62
2022/06/24 04:59:11;;;;;;;4.40;1.58;;;;;;;;;;4929119;29;20059;-62
2022/06/24 05:01:38;;;;;;;2.47;1.20;;;;;;;;;;4925345;28;20051;-61
2022/06/24 05:04:06;;;;;;;3.40;1.20;;;;;;;;;;4912767;29;20060;-63
2022/06/24 05:06:32;;;;;;;3.83;1.00;;;;;;;;;;4909560;28;20879;-62
2022/06/24 05:08:59;;;;;;;4.13;1.20;;;;;;;;;;4931830;29;20058;-62
2022/06/24 05:11:25;;;;;;;3.08;1.15;;;;;;;;;;4928229;29;20043;-63
2022/06/24 05:13:52;;;;;;;3.05;1.35;;;;;;;;;;4930282;29;20052;-63
2022/06/24 05:16:19;;;;;;;2.53;1.00;;;;;;;;;;4931403;29;20051;-65
2022/06/24 05:18:45;;;;;;;2.03;0.93;;;;;;;;;;4926421;29;20118;-62
2022/06/24 05:21:13;;;;;;;1.35;0.90;;;;;;;;;;4932339;29;20079;-65
2022/06/24 05:23:40;;;;;;;5.45;1.23;;;;;;;;;;4911138;29;20083;-61
2022/06/24 05:26:06;;;;;;;3.00;1.52;;;;;;;;;;4913046;29;20095;-61
2022/06/24 05:28:34;;;;;;;2.92;1.08;;;;;;;;;;4919382;29;20062;-61
2022/06/24 05:31:01;;;;;;;3.67;1.08;;;;;;;;;;4932013;29;20082;-61
2022/06/24 05:33:29;;;;;;;1.67;1.00;;;;;;;;;;4925310;29;20119;-62
2022/06/24 05:35:55;;;;;;;4.03;1.53;;;;;;;;;;4931184;29;20047;-65
2022/06/24 05:38:23;;;;;;;4.05;1.02;;;;;;;;;;4925901;29;20043;-62
2022/06/24 05:40:51;;;;;;;1.60;1.00;;;;;;;;;;4931915;29;20056;-64
2022/06/24 05:43:18;;;;;;;2.57;1.20;;;;;;;;;;4921468;29;20075;-65
2022/06/24 05:45:44;;;;;;;2.78;1.17;;;;;;;;;;4912803;29;20313;-64
2022/06/24 05:48:11;;;;;;;1.85;1.10;;;;;;;;;;4910568;29;20114;-64
2022/06/24 05:50:38;;;;;;;1.88;1.20;;;;;;;;;;4931427;29;20047;-64
2022/06/24 05:56:02;;;;;;;3.08;1.55;;;;;;;;;;4854601;29;20060;-62
2022/06/24 05:58:28;;;;;;;;;;;;;;;;;;4894670;29;20070;-62
2022/06/24 06:00:55;;;;;;;1.42;1.00;;;;;;;;;;4913390;29;19969;-64
2022/06/24 06:03:22;;;;;;;2.17;1.20;;;;;;;;;;4912224;29;20063;-62
2022/06/24 06:05:48;;;;;;;1.75;1.02;;;;;;;;;;4899366;29;20064;-67
2022/06/24 06:08:16;;;;;;;1.40;1.00;;;;;;;;;;4912871;29;20155;-62
2022/06/24 06:10:43;;;;;;;3.05;1.10;;;;;;;;;;4923784;29;20302;-61
2022/06/24 06:13:11;;;;;;;3.80;1.92;;;;;;;;;;4931473;29;20143;-67
2022/06/24 06:15:38;;;;;;;2.28;1.38;;;;;;;;;;4911830;29;20059;-63
2022/06/24 06:18:05;;;;;;;1.42;1.00;;;;;;;;;;4913587;29;20086;-63
2022/06/24 06:20:31;;;;;;;2.42;1.00;;;;;;;;;;4922206;29;20110;-66
2022/06/24 06:22:57;;;;;;;2.10;1.10;;;;;;;;;;4935317;29;20067;-64
2022/06/24 06:25:24;;;;;;;6.20;1.15;;;;;;;;;;4920267;29;20118;-63
2022/06/24 06:27:51;;;;;;;2.17;1.05;;;;;;;;;;4915448;29;20051;-62
2022/06/24 06:30:19;;;;;;;2.20;1.10;;;;;;;;;;4928263;29;20099;-63
2022/06/24 06:32:45;;;;;;;2.95;1.25;;;;;;;;;;4934827;29;20047;-62
2022/06/24 06:35:12;;;;;;;9.35;3.05;;;;;;;;;;4928169;29;20039;-61
2022/06/24 06:37:38;;;;;;;7.85;2.20;;;;;;;;;;4934246;29;20055;-60
2022/06/24 06:40:06;;;;;;;5.50;1.60;;;;;;;;;;4912667;29;20121;-61
2022/06/24 06:42:32;;;;;;;3.05;1.65;;;;;;;;;;4931295;29;20062;-61
2022/06/24 06:45:00;;;;;;;6.80;2.03;;;;;;;;;;4931735;29;20059;-63
2022/06/24 06:47:28;;;;;;;2.20;1.13;;;;;;;;;;4926528;29;20066;-61
2022/06/24 06:49:55;;;;;;;5.20;1.80;;;;;;;;;;4928329;29;20083;-60
2022/06/24 06:52:22;;;;;;;3.33;1.10;;;;;;;;;;4924816;29;20065;-62
2022/06/24 06:54:49;;;;;;;3.92;1.60;;;;;;;;;;4930349;29;20055;-61
2022/06/24 06:57:15;;;;;;;5.00;1.92;;;;;;;;;;4915109;29;20063;-62
2022/06/24 06:59:43;;;;;;;5.07;2.03;;;;;;;;;;4915235;29;20052;-61
2022/06/24 07:02:09;;;;;;;6.10;1.53;;;;;;;;;;4921437;29;20138;-63
2022/06/24 07:04:38;;;;;;;3.85;2.03;;;;;;;;;;4933547;29;20055;-61
2022/06/24 07:07:04;;;;;;;2.47;1.30;;;;;;;;;;4919303;29;20052;-62
2022/06/24 07:09:31;;;;;;;4.43;1.77;;;;;;;;;;4914824;29;20056;-60
2022/06/24 07:11:57;;;;;;;8.77;2.25;;;;;;;;;;4909587;29;20055;-62
2022/06/24 07:14:24;;;;;;;3.88;1.75;;;;;;;;;;4913883;29;20103;-61
2022/06/24 07:16:50;;;;;;;5.10;2.42;;;;;;;;;;4909912;29;20047;-63
2022/06/24 07:19:17;;;;;;;3.90;1.95;;;;;;;;;;4915262;29;20055;-63
2022/06/24 07:21:45;;;;;;;6.38;2.25;;;;;;;;;;4900312;29;20059;-62
2022/06/24 07:24:11;;;;;;;3.80;1.58;;;;;;;;;;4914927;29;20048;-60
2022/06/24 07:26:38;;;;;;;9.20;4.43;;;;;;;;;;4913099;29;20090;-64
2022/06/24 07:29:05;;;;;;;7.32;3.15;;;;;;;;;;4930958;29;20158;-63
2022/06/24 07:31:35;;;;;;;7.18;2.30;;;;;;;;;;4933003;29;20142;-64
2022/06/24 07:34:03;;;;;;;4.68;1.60;;;;;;;;;;4910886;29;20058;-65
2022/06/24 07:36:29;;;;;;;2.28;1.42;;;;;;;;;;4914580;29;20070;-62
2022/06/24 07:38:57;;;;;;;5.90;2.33;;;;;;;;;;4923134;29;20055;-61
2022/06/24 07:41:24;;;;;;;3.00;1.65;;;;;;;;;;4933677;29;20149;-62
2022/06/24 07:43:50;;;;;;;1.90;1.27;;;;;;;;;;4926935;29;20119;-64
2022/06/24 07:46:17;;;;;;;4.90;1.50;;;;;;;;;;4933038;29;20059;-61
2022/06/24 07:48:43;;;;;;;4.40;2.13;;;;;;;;;;4918477;29;20043;-62
2022/06/24 07:51:11;;;;;;;7.43;3.55;;;;;;;;;;4914387;29;20047;-62
2022/06/24 07:53:40;;;;;;;5.07;2.10;;;;;;;;;;4916018;29;20059;-62
2022/06/24 07:58:52;;;;;;;8.65;3.50;;;;;;;;;;4922610;29;20051;-61
2022/06/24 08:01:19;;;;;;;7.72;3.30;;;;;;;;;;4929241;29;20055;-62
2022/06/24 08:03:45;;;;;;;5.38;1.77;;;;;;;;;;4920838;29;20052;-64
2022/06/24 08:06:12;;;;;;;5.40;2.13;;;;;;;;;;4913663;29;20052;-64
2022/06/24 08:08:39;;;;;;;5.55;3.08;;;;;;;;;;4910427;29;20063;-64
2022/06/24 08:11:05;;;;;;;6.70;3.70;;;;;;;;;;4932937;29;20051;-65
2022/06/24 08:13:34;;;;;;;8.38;3.80;;;;;;;;;;4927666;29;20057;-66
2022/06/24 08:16:01;;;;;;;9.75;3.78;;;;;;;;;;4913743;29;20052;-64
2022/06/24 08:18:27;;;;;;;5.28;2.75;;;;;;;;;;4914146;29;20062;-62
2022/06/24 08:20:54;;;;;;;2.88;1.60;;;;;;;;;;4908570;29;20059;-61
2022/06/24 08:23:20;;;;;;;7.10;3.40;;;;;;;;;;4913436;29;20060;-62
2022/06/24 08:25:47;;;;;;;4.10;1.70;;;;;;;;;;4909002;29;20052;-63
2022/06/24 08:28:13;;;;;;;2.55;1.45;;;;;;;;;;4929587;29;20062;-62
2022/06/24 08:30:41;;;;;;;7.28;3.90;;;;;;;;;;4926791;29;20059;-63
2022/06/24 08:33:08;;;;;;;8.23;4.60;;;;;;;;;;4932701;29;20055;-67
2022/06/24 08:35:34;;;;;;;6.90;2.80;;;;;;;;;;4915892;29;20044;-66
2022/06/24 08:38:01;;;;;;;3.95;1.83;;;;;;;;;;4913631;29;20055;-63
2022/06/24 08:40:28;;;;;;;4.35;1.48;;;;;;;;;;4908048;29;20063;-68
2022/06/24 08:42:56;;;;;;;5.40;2.53;;;;;;;;;;4913468;29;20111;-66
2022/06/24 08:45:23;;;;;;;5.18;2.40;;;;;;;;;;4913664;29;20154;-65
2022/06/24 08:47:51;;;;;;;7.07;3.83;;;;;;;;;;4932186;29;20071;-63
2022/06/24 08:50:18;;;;;;;6.93;3.70;;;;;;;;;;4911178;29;20055;-65
2022/06/24 08:52:47;;;;;;;3.70;1.83;;;;;;;;;;4932014;29;20110;-63
2022/06/24 08:55:16;;;;;;;4.30;2.10;;;;;;;;;;4925227;29;20059;-62
2022/06/24 08:57:43;;;;;;;7.72;3.90;;;;;;;;;;4913497;29;20071;-63
2022/06/24 09:00:10;;;;;;;4.82;2.30;;;;;;;;;;4916320;29;20141;-65
2022/06/24 09:02:36;;;;;;;8.55;4.22;;;;;;;;;;4925785;29;20106;-63
2022/06/24 09:05:09;;;;;;;11.68;5.10;;;;;;;;;;4931679;29;20123;-61
2022/06/24 09:07:36;;;;;;;8.82;4.47;;;;;;;;;;4923629;29;20063;-64
2022/06/24 09:10:04;;;;;;;7.95;3.33;;;;;;;;;;4929271;29;20055;-63
2022/06/24 09:12:31;;;;;;;10.07;5.75;;;;;;;;;;4912720;29;20059;-63
2022/06/24 09:15:01;;;;;;;10.55;4.70;;;;;;;;;;4913118;29;20135;-64
2022/06/24 09:17:29;;;;;;;14.20;6.55;;;;;;;;;;4907707;29;20075;-67
2022/06/24 09:20:04;;;;;;;11.27;5.65;;;;;;;;;;4912788;29;20063;-60
2022/06/24 09:22:32;;;;;;;11.75;6.35;;;;;;;;;;4907812;29;20091;-64
2022/06/24 09:25:00;;;;;;;10.68;6.65;;;;;;;;;;4930162;29;20059;-66
2022/06/24 09:27:27;;;;;;;8.98;4.85;;;;;;;;;;4924212;29;20051;-61
2022/06/24 09:29:53;;;;;;;7.68;5.07;;;;;;;;;;4929643;29;20047;-64
2022/06/24 09:32:20;;;;;;;12.45;7.28;;;;;;;;;;4923722;29;20047;-64
2022/06/24 09:35:03;;;;;;;5.53;3.30;;;;;;;;;;4931271;29;20134;-62
2022/06/24 09:37:38;;;;;;;9.13;5.38;;;;;;;;;;4920738;29;20048;-61
2022/06/24 09:40:14;;;;;;;12.45;6.80;;;;;;;;;;4912944;29;20055;-65
2022/06/24 09:42:41;;;;;;;8.88;4.97;;;;;;;;;;4913852;29;20047;-64
2022/06/24 09:45:08;;;;;;;12.60;7.10;;;;;;;;;;4928889;29;20142;-62
2022/06/24 09:47:38;;;;;;;6.88;2.75;;;;;;;;;;4926753;29;20047;-68
2022/06/24 09:50:05;;;;;;;12.93;7.00;;;;;;;;;;4931562;29;20047;-64
2022/06/24 09:52:32;;;;;;;11.25;5.43;;;;;;;;;;4926691;28;20055;-62
2022/06/24 09:55:00;;;;;;;11.77;5.20;;;;;;;;;;4915780;29;20058;-66
2022/06/24 09:57:28;;;;;;;9.77;4.85;;;;;;;;;;4916234;29;20103;-62
2022/06/24 10:02:40;;;;;;;11.40;6.93;;;;;;;;;;4934650;29;20051;-61
2022/06/24 10:05:08;;;;;;;11.90;6.40;;;;;;;;;;4912686;29;20067;-62
2022/06/24 10:07:35;;;;;;;12.90;7.35;;;;;;;;;;4916956;29;20059;-64
2022/06/24 10:10:04;;;;;;;13.43;7.65;;;;;;;;;;4911749;29;20170;-63
2022/06/24 10:12:32;;;;;;;6.90;4.10;;;;;;;;;;4916318;29;20071;-62
2022/06/24 10:14:59;;;;;;;7.45;3.55;;;;;;;;;;4925175;29;20070;-64
2022/06/24 10:17:26;;;;;;;8.75;4.40;;;;;;;;;;4934870;29;20051;-62
2022/06/24 10:19:53;;;;;;;9.15;4.68;;;;;;;;;;4929993;29;20094;-62
2022/06/24 10:22:38;;;;;;;9.25;3.88;;;;;;;;;;4933775;29;20055;-63
2022/06/24 10:25:07;;;;;;;7.28;3.90;;;;;;;;;;4928286;29;20050;-62
2022/06/24 10:27:49;;;;;;;5.20;3.10;;;;;;;;;;4934676;29;20063;-64
2022/06/24 10:30:35;;;;;;;7.38;3.85;;;;;;;;;;4917777;29;20086;-62
2022/06/24 10:33:14;;;;;;;6.93;3.92;;;;;;;;;;4934346;29;20091;-64
2022/06/24 10:35:55;;;;;;;7.72;3.92;;;;;;;;;;4929371;29;20114;-68
2022/06/24 10:38:22;;;;;;;10.60;3.38;;;;;;;;;;4933172;29;20059;-62
2022/06/24 10:40:50;;;;;;;6.30;2.85;;;;;;;;;;4928986;29;20062;-68
2022/06/24 10:43:32;;;;;;;5.82;2.95;;;;;;;;;;4934241;29;20039;-63
2022/06/24 10:46:09;;;;;;;7.78;3.83;;;;;;;;;;4927721;29;20078;-69
2022/06/24 10:48:56;;;;;;;8.38;3.67;;;;;;;;;;4934373;29;20067;-66
2022/06/24 10:51:23;;;;;;;7.03;3.03;;;;;;;;;;4928646;29;20063;-72
2022/06/24 10:54:09;;;;;;;8.95;5.10;;;;;;;;;;4934550;29;20066;-66
2022/06/24 10:56:41;;;;;;;8.20;3.63;;;;;;;;;;4926168;29;20071;-67
2022/06/24 10:59:09;;;;;;;8.75;4.55;;;;;;;;;;4930166;29;20063;-67
2022/06/24 11:01:37;;;;;;;8.25;3.85;;;;;;;;;;4916407;29;20055;-69
2022/06/24 11:04:05;;;;;;;8.63;4.87;;;;;;;;;;4913904;29;20051;-67
2022/06/24 11:06:31;;;;;;;;;;;;;;;;;;4920678;29;20055;-69
2022/06/24 11:09:05;;;;;;;5.72;2.70;;;;;;;;;;4950258;29;19930;-64
2022/06/24 11:11:32;;;;;;;10.80;4.82;;;;;;;;;;4925923;29;20146;-65
2022/06/24 11:14:00;;;;;;;7.78;4.05;;;;;;;;;;4933452;29;20051;-65
2022/06/24 11:16:27;;;;;;;7.03;4.20;;;;;;;;;;4939399;28;20048;-67
2022/06/24 11:18:54;;;;;;;14.07;6.30;;;;;;;;;;4930785;29;20058;-68
2022/06/24 11:21:20;;;;;;;7.47;4.25;;;;;;;;;;4923916;29;20047;-64
2022/06/24 11:23:47;;;;;;;8.23;4.65;;;;;;;;;;4914764;29;20055;-68
2022/06/24 11:26:15;;;;;;;6.97;3.58;;;;;;;;;;4911045;29;20051;-67
2022/06/24 11:28:42;;;;;;;6.85;3.45;;;;;;;;;;4933497;29;20075;-67
2022/06/24 11:31:17;;;;;;;10.27;3.10;;;;;;;;;;4931203;29;20087;-70
2022/06/24 11:33:45;;;;;;;7.72;3.95;;;;;;;;;;4914362;29;20048;-65
2022/06/24 11:36:14;;;;;;;7.72;4.60;;;;;;;;;;4914570;29;20111;-71
2022/06/24 11:38:54;;;;;;;11.52;5.18;;;;;;;;;;4926904;29;20133;-68
2022/06/24 11:41:24;;;;;;;9.65;6.00;;;;;;;;;;4933052;29;20114;-64
2022/06/24 11:43:51;;;;;;;7.68;4.00;;;;;;;;;;4926863;29;20047;-71
2022/06/24 11:46:19;;;;;;;11.02;5.80;;;;;;;;;;4933794;29;20390;-65
2022/06/24 11:48:46;;;;;;;13.50;6.82;;;;;;;;;;4919129;29;20119;-65
2022/06/24 11:51:19;;;;;;;10.02;4.80;;;;;;;;;;4914667;29;20055;-63
2022/06/24 11:53:56;;;;;;;17.75;8.55;;;;;;;;;;4908270;29;20086;-64
2022/06/24 11:56:23;;;;;;;18.42;11.13;;;;;;;;;;4914083;29;20075;-63
2022/06/24 11:58:49;;;;;;;11.82;5.50;;;;;;;;;;4908689;29;20047;-65
2022/06/24 12:01:16;;;;;;;9.10;4.57;;;;;;;;;;4913843;29;20052;-63
2022/06/24 12:03:46;;;;;;;9.00;4.38;;;;;;;;;;4918516;29;20051;-67
2022/06/24 12:06:12;;;;;;;9.07;4.55;;;;;;;;;;4932551;29;20114;-61
2022/06/24 12:08:39;;;;;;;10.05;5.28;;;;;;;;;;4928189;29;20130;-65
2022/06/24 12:11:14;;;;;;;10.55;3.45;;;;;;;;;;4932899;29;20058;-63
2022/06/24 12:13:41;;;;;;;8.02;3.00;;;;;;;;;;4927548;29;20047;-63
2022/06/24 12:16:07;;;;;;;5.80;2.97;;;;;;;;;;4932897;29;20058;-64
2022/06/24 12:18:34;;;;;;;7.88;3.00;;;;;;;;;;4923177;29;20047;-61
2022/06/24 12:21:03;;;;;;;7.40;3.95;;;;;;;;;;4913903;29;20110;-64
2022/06/24 12:23:34;;;;;;;5.50;2.95;;;;;;;;;;4910188;29;20052;-66
2022/06/24 12:26:05;;;;;;;7.90;3.15;;;;;;;;;;4932422;29;20055;-67
2022/06/24 12:28:31;;;;;;;4.93;2.50;;;;;;;;;;4926881;29;20127;-63
2022/06/24 12:31:01;;;;;;;7.35;3.85;;;;;;;;;;4923231;29;20063;-62
2022/06/24 12:33:28;;;;;;;7.10;3.83;;;;;;;;;;4913564;29;20066;-64
2022/06/24 12:36:10;;;;;;;6.97;3.35;;;;;;;;;;4908692;29;20051;-64
2022/06/24 12:38:38;;;;;;;7.57;3.58;;;;;;;;;;4914144;29;20102;-62
2022/06/24 12:41:11;;;;;;;6.35;3.70;;;;;;;;;;4927157;29;20114;-64
2022/06/24 12:43:50;;;;;;;8.82;4.53;;;;;;;;;;4920513;29;20051;-62
2022/06/24 12:46:17;;;;;;;7.32;3.55;;;;;;;;;;4926589;29;20066;-62
2022/06/24 12:51:29;;;;;;;6.75;3.53;;;;;;;;;;4907841;29;20051;-63
2022/06/24 12:53:56;;;;;;;7.38;4.18;;;;;;;;;;4912223;29;20095;-62
2022/06/24 12:56:23;;;;;;;10.43;5.68;;;;;;;;;;4908420;29;20078;-64
2022/06/24 12:58:52;;;;;;;8.55;5.03;;;;;;;;;;4912929;29;20066;-62
2022/06/24 13:01:20;;;;;;;9.48;4.38;;;;;;;;;;4920042;29;20082;-62
2022/06/24 13:03:47;;;;;;;9.85;5.55;;;;;;;;;;4931507;29;20066;-65
2022/06/24 13:06:14;;;;;;;6.88;3.53;;;;;;;;;;4914998;29;20052;-63
2022/06/24 13:08:42;;;;;;;7.22;3.08;;;;;;;;;;4912629;29;20070;-63
2022/06/24 13:11:09;;;;;;;7.78;3.35;;;;;;;;;;4908611;29;20070;-64
2022/06/24 13:13:35;;;;;;;5.70;3.10;;;;;;;;;;4913119;29;20115;-65
2022/06/24 13:16:02;;;;;;;5.57;3.30;;;;;;;;;;4912897;29;20059;-63
2022/06/24 13:18:29;;;;;;;5.40;3.35;;;;;;;;;;4930885;29;20055;-64
2022/06/24 13:20:55;;;;;;;6.15;3.10;;;;;;;;;;4925885;29;20051;-62
2022/06/24 13:23:22;;;;;;;7.30;3.58;;;;;;;;;;4931765;29;20063;-65
2022/06/24 13:25:50;;;;;;;7.38;3.70;;;;;;;;;;4924171;28;20051;-63
2022/06/24 13:28:16;;;;;;;10.15;4.85;;;;;;;;;;4934972;29;20086;-65
2022/06/24 13:30:42;;;;;;;7.65;3.33;;;;;;;;;;4935867;29;20051;-65
2022/06/24 13:33:09;;;;;;;11.18;5.50;;;;;;;;;;4930342;29;20082;-65
2022/06/24 13:35:35;;;;;;;10.20;4.47;;;;;;;;;;4934739;29;20059;-66
2022/06/24 13:38:02;;;;;;;10.70;5.25;;;;;;;;;;4914686;29;20047;-66
2022/06/24 13:40:28;;;;;;;9.32;4.95;;;;;;;;;;4916638;29;20060;-63
2022/06/24 13:42:58;;;;;;;6.43;3.70;;;;;;;;;;4911290;29;20059;-63
2022/06/24 13:45:25;;;;;;;6.78;3.35;;;;;;;;;;4916168;29;20059;-64
2022/06/24 13:47:52;;;;;;;8.40;4.53;;;;;;;;;;4911550;29;20102;-64
2022/06/24 13:50:18;;;;;;;5.65;3.55;;;;;;;;;;4935682;29;20075;-66
2022/06/24 13:52:45;;;;;;;7.30;4.30;;;;;;;;;;4928944;29;20062;-64
2022/06/24 13:55:11;;;;;;;8.20;4.90;;;;;;;;;;4934724;29;20051;-63
2022/06/24 13:57:38;;;;;;;13.15;5.53;;;;;;;;;;4929014;29;20065;-65
2022/06/24 14:00:07;;;;;;;9.30;5.05;;;;;;;;;;4935198;29;20106;-64
2022/06/24 14:02:34;;;;;;;10.95;5.75;;;;;;;;;;4926672;29;20052;-63
2022/06/24 14:05:00;;;;;;;9.82;3.97;;;;;;;;;;4916164;29;20056;-65
2022/06/24 14:07:27;;;;;;;5.38;3.28;;;;;;;;;;4911063;28;20083;-65
2022/06/24 14:09:54;;;;;;;6.07;2.30;;;;;;;;;;4931811;29;20066;-64
2022/06/24 14:12:20;;;;;;;6.30;2.13;;;;;;;;;;4925130;29;20066;-65
2022/06/24 14:14:47;;;;;;;5.40;2.30;;;;;;;;;;4945119;29;20084;-66
2022/06/24 14:17:15;;;;;;;3.88;2.25;;;;;;;;;;4934911;29;20110;-64
2022/06/24 14:19:41;;;;;;;3.17;1.55;;;;;;;;;;4928561;29;20055;-64
2022/06/24 14:22:08;;;;;;;3.38;1.90;;;;;;;;;;4935308;29;20051;-64
2022/06/24 14:24:34;;;;;;;2.65;1.48;;;;;;;;;;4928901;29;20063;-65
2022/06/24 14:27:02;;;;;;;6.70;1.50;;;;;;;;;;4934818;29;20055;-64
2022/06/24 14:29:29;;;;;;;2.25;1.42;;;;;;;;;;4929172;29;20058;-63
2022/06/24 14:31:55;;;;;;;3.63;1.60;;;;;;;;;;4934727;29;20130;-66
2022/06/24 14:34:23;;;;;;;2.60;1.45;;;;;;;;;;4918880;29;20051;-64
2022/06/24 14:36:50;;;;;;;2.75;1.33;;;;;;;;;;4915043;29;20059;-64
2022/06/24 14:42:01;;;;;;;4.80;1.75;;;;;;;;;;4914737;29;20059;-65
2022/06/24 14:44:28;;;;;;;1.95;1.17;;;;;;;;;;4916439;29;20051;-65
2022/06/24 14:46:54;;;;;;;4.25;1.30;;;;;;;;;;4933904;29;20383;-64
2022/06/24 14:49:21;;;;;;;1.48;1.17;;;;;;;;;;4927595;29;20055;-63
2022/06/24 14:51:49;;;;;;;2.55;1.17;;;;;;;;;;4933992;29;20051;-63
2022/06/24 14:54:15;;;;;;;1.20;1.00;;;;;;;;;;4927997;29;20236;-64
2022/06/24 14:56:42;;;;;;;2.47;1.25;;;;;;;;;;4934295;29;20146;-65
2022/06/24 14:59:09;;;;;;;1.30;1.00;;;;;;;;;;4934390;29;20067;-64
2022/06/24 15:01:36;;;;;;;1.17;1.00;;;;;;;;;;4908528;29;20139;-63
2022/06/24 15:04:02;;;;;;;2.50;1.00;;;;;;;;;;4914121;29;20048;-68
2022/06/24 15:06:29;;;;;;;1.20;1.00;;;;;;;;;;4909432;29;20055;-65